หน้าหลัก
METAR-TAF:

METAR-TAF

ท่าอากาศยาน :

Draugen, นอร์เวย์

ละติจูด: 64-21-20N, ลองจิจูด: 007-47-30E, ความสูง: 0 ม.

การสังเกตสภาพอากาศปัจจุบัน

รายงานได้ทำขึ้นเมื่อ 25 นาทีที่แล้ว ณ เวลา 23:20 UTC
ลม 20 นอตจากตะวันออก
อุณหภูมิ 14°C
ความชื้น 94%
ความกดอากาศ 1016 hPa
ทัศนวิสัย 10 กม. หรือมากกว่า

METAR: ENDR 192320Z AUTO 10020KT 9999NDV BKN070/// OVC150/// 14/13 Q1016 W///S3

เวลา: 01:45 (23:45 UTC)


TAF: หายไป

สังเกตการณ์สภาพอากาศและพยากรณ์อากาศของสนามบินมากกว่า 4000 แห่ง (รายงาน METAR และ TAF).

สถานีที่ดูได้จะแสดงไว้ด้วยจุดสีเหลืองและสีแดงบนแผนที่.

เลื่อนเมาส์ไปเหนือจุดเพื่อดูชื่อสถานี.

แล้วคลิกเพื่อดูสังเกตการณ์และการพยากรณ์สภาพอากาศ.

ในการเปลี่ยนแผนที่: คลิกที่ปุ่มสีเขียวที่มีกากบาทสีดำเพื่อซูมเข้า; ที่ปุ่มสีเขียวที่มีขีดเพื่อซูมออก; หรือที่ลูกศรสีเขียวเพื่อไปยังแผนที่ที่อยู่ติดกัน.


METAR-TAF: